Time;durP1;ratioP1;P1;durP2;ratioP2;P2;SDS_P1;SDS_P2;PMS_P1;PMS_P2;Temp;Humidity;BMP_temperature;BMP_pressure;BME280_temperature;BME280_humidity;BME280_pressure;Samples;Min_cycle;Max_cycle;Signal;HPM_P1;HPM_P2
2023/06/25 00:00:38;;;;;;;;;;;19.80;64.10;;;;;;6251317;22;19911;-85
2023/06/25 00:03:04;;;;;;;;;;;19.70;64.20;;;;;;6226061;22;20367;-85
2023/06/25 00:05:30;;;;;;;;;;;19.70;64.30;;;;;;6225510;22;19912;-84
2023/06/25 00:07:56;;;;;;;;;;;19.70;64.30;;;;;;6278483;22;20348;-89
2023/06/25 00:10:22;;;;;;;;;;;19.50;64.30;;;;;;6225580;22;19990;-89
2023/06/25 00:12:47;;;;;;;;;;;19.50;64.70;;;;;;6250871;22;19915;-86
2023/06/25 00:15:13;;;;;;;;;;;19.50;64.80;;;;;;6250904;22;19987;-87
2023/06/25 00:17:39;;;;;;;;;;;19.40;64.60;;;;;;6225907;22;19917;-85
2023/06/25 00:20:07;;;;;;;;;;;19.30;64.60;;;;;;6251151;22;19916;-90
2023/06/25 00:22:33;;;;;;;;;;;19.30;64.50;;;;;;6251380;22;19938;-86
2023/06/25 00:24:59;;;;;;;;;;;19.30;64.60;;;;;;6251237;22;19938;-90
2023/06/25 00:27:25;;;;;;;;;;;19.20;64.60;;;;;;6250712;22;19965;-90
2023/06/25 00:29:51;;;;;;;;;;;19.10;65.00;;;;;;6251232;22;19911;-88
2023/06/25 00:32:18;;;;;;;;;;;19.10;65.00;;;;;;6250582;22;19907;-88
2023/06/25 00:34:44;;;;;;;;;;;19.10;64.80;;;;;;6250768;22;19933;-89
2023/06/25 00:37:16;;;;;;;;;;;19.10;64.80;;;;;;6225249;22;19907;-89
2023/06/25 00:39:43;;;;;;;;;;;18.90;64.90;;;;;;6251055;22;19912;-89
2023/06/25 00:42:09;;;;;;;;;;;18.80;65.30;;;;;;6250770;22;19953;-88
2023/06/25 00:44:40;;;;;;;;;;;18.80;65.50;;;;;;6225727;22;19922;-86
2023/06/25 00:47:25;;;;;;;;;;;18.80;65.30;;;;;;6251325;22;19968;-88
2023/06/25 00:49:51;;;;;;;;;;;18.80;65.40;;;;;;6245748;23;19971;-86
2023/06/25 00:52:17;;;;;;;;;;;18.80;65.60;;;;;;6245141;22;19907;-88
2023/06/25 00:54:44;;;;;;;;;;;18.60;65.10;;;;;;6245940;23;19912;-85
2023/06/25 00:57:10;;;;;;;;;;;18.60;65.70;;;;;;6245153;22;19939;-89
2023/06/25 00:59:39;;;;;;;;;;;18.60;65.80;;;;;;6246142;22;19990;-87
2023/06/25 01:02:27;;;;;;;;;;;18.70;65.70;;;;;;6245178;23;19907;-87
2023/06/25 01:05:31;;;;;;;;;;;18.60;65.60;;;;;;6245954;23;19911;-87
2023/06/25 01:07:59;;;;;;;;;;;18.60;65.50;;;;;;6245801;22;19922;-89
2023/06/25 01:10:25;;;;;;;;;;;18.70;65.70;;;;;;6245410;23;19915;-89
2023/06/25 01:12:52;;;;;;;;;;;18.60;65.70;;;;;;6245725;23;19987;-89
2023/06/25 01:15:18;;;;;;;;;;;18.60;65.80;;;;;;6220367;23;19911;-88
2023/06/25 01:17:48;;;;;;;;;;;18.60;65.90;;;;;;6220344;23;19911;-87
2023/06/25 01:20:15;;;;;;;;;;;18.50;65.90;;;;;;6245615;23;19911;-90
2023/06/25 01:22:41;;;;;;;;;;;18.50;65.90;;;;;;6220824;23;20280;-90
2023/06/25 01:25:08;;;;;;;;;;;18.50;65.90;;;;;;6246267;23;19912;-86
2023/06/25 01:27:34;;;;;;;;;;;18.50;65.90;;;;;;6247794;23;19911;-85
2023/06/25 01:30:03;;;;;;;;;;;18.40;66.00;;;;;;6247705;23;20005;-86
2023/06/25 01:32:29;;;;;;;;;;;18.40;65.80;;;;;;6247312;23;19911;-89
2023/06/25 01:34:55;;;;;;;;;;;18.40;65.30;;;;;;6222293;23;19957;-86
2023/06/25 01:37:21;;;;;;;;;;;18.40;66.00;;;;;;6247265;22;19907;-86
2023/06/25 01:39:49;;;;;;;;;;;18.30;65.90;;;;;;6247686;23;19917;-85
2023/06/25 01:42:15;;;;;;;;;;;18.30;66.00;;;;;;6247211;23;19907;-86
2023/06/25 01:44:41;;;;;;;;;;;18.30;66.10;;;;;;6247736;23;19987;-90
2023/06/25 01:47:06;;;;;;;;;;;18.30;66.10;;;;;;6247039;22;19982;-84
2023/06/25 01:49:33;;;;;;;;;;;18.20;66.00;;;;;;6252397;22;19915;-90
2023/06/25 01:52:01;;;;;;;;;;;18.20;66.20;;;;;;6252425;22;19913;-90
2023/06/25 01:54:27;;;;;;;;;;;18.10;66.20;;;;;;6252772;22;19915;-85
2023/06/25 01:56:53;;;;;;;;;;;18.00;66.10;;;;;;6252229;22;19990;-88
2023/06/25 01:59:19;;;;;;;;;;;18.00;66.20;;;;;;6227340;22;20363;-86
2023/06/25 02:01:45;;;;;;;;;;;18.00;66.40;;;;;;6226557;22;19999;-90
2023/06/25 02:04:10;;;;;;;;;;;18.00;66.30;;;;;;6227195;22;19989;-89
2023/06/25 02:06:36;;;;;;;;;;;18.00;66.40;;;;;;6226663;22;19918;-88
2023/06/25 02:09:02;;;;;;;;;;;18.00;66.40;;;;;;6227234;22;19911;-87
2023/06/25 02:11:28;;;;;;;;;;;17.90;66.40;;;;;;6226396;22;19915;-84
2023/06/25 02:13:54;;;;;;;;;;;17.90;66.50;;;;;;6279741;22;19911;-86
2023/06/25 02:16:20;;;;;;;;;;;17.90;66.40;;;;;;6251866;22;19921;-91
2023/06/25 02:18:46;;;;;;;;;;;17.80;65.70;;;;;;6252425;22;19918;-90
2023/06/25 02:21:12;;;;;;;;;;;17.80;66.50;;;;;;6226663;22;19943;-90
2023/06/25 02:23:38;;;;;;;;;;;17.80;66.40;;;;;;6252665;22;19914;-87
2023/06/25 02:26:04;;;;;;;;;;;17.80;66.30;;;;;;6278795;22;19915;-85
2023/06/25 02:28:30;;;;;;;;;;;17.80;66.20;;;;;;6252801;22;19914;-91
2023/06/25 02:30:56;;;;;;;;;;;17.80;66.40;;;;;;6278845;22;19919;-88
2023/06/25 02:33:24;;;;;;;;;;;17.80;66.50;;;;;;6252076;22;20037;-90
2023/06/25 02:35:50;;;;;;;;;;;17.70;66.50;;;;;;6252323;22;19938;-91
2023/06/25 02:38:16;;;;;;;;;;;17.80;66.50;;;;;;6227108;22;19911;-87
2023/06/25 02:40:42;;;;;;;;;;;17.80;66.50;;;;;;6226514;22;19939;-88
2023/06/25 02:43:08;;;;;;;;;;;17.70;66.70;;;;;;6252415;22;19911;-90
2023/06/25 02:45:34;;;;;;;;;;;17.70;66.80;;;;;;6226532;22;19968;-90
2023/06/25 02:48:00;;;;;;;;;;;17.70;66.90;;;;;;6252283;22;20317;-87
2023/06/25 02:50:26;;;;;;;;;;;17.60;67.10;;;;;;6246642;23;20042;-90
2023/06/25 02:52:52;;;;;;;;;;;17.60;67.10;;;;;;6221556;23;19911;-88
2023/06/25 02:55:18;;;;;;;;;;;17.60;67.00;;;;;;6221186;23;19957;-88
2023/06/25 02:57:44;;;;;;;;;;;17.60;67.00;;;;;;6247007;23;19911;-87
2023/06/25 03:00:10;;;;;;;;;;;17.60;67.20;;;;;;6221224;23;20356;-87
2023/06/25 03:02:36;;;;;;;;;;;17.60;66.50;;;;;;6246903;22;19915;-90
2023/06/25 03:05:02;;;;;;;;;;;17.60;67.00;;;;;;6246930;23;19912;-88
2023/06/25 03:07:28;;;;;;;;;;;17.70;66.90;;;;;;6220925;23;19926;-86
2023/06/25 03:09:54;;;;;;;;;;;17.70;66.80;;;;;;6246870;23;19916;-89
2023/06/25 03:12:20;;;;;;;;;;;17.80;67.10;;;;;;6220652;22;20332;-87
2023/06/25 03:14:45;;;;;;;;;;;17.80;66.90;;;;;;6248165;22;19990;-86
2023/06/25 03:17:11;;;;;;;;;;;17.80;66.70;;;;;;6246168;23;20002;-90
2023/06/25 03:19:58;;;;;;;;;;;17.80;66.70;;;;;;6246987;23;19911;-88
2023/06/25 03:22:23;;;;;;;;;;;17.90;66.90;;;;;;6246812;22;19911;-86
2023/06/25 03:24:49;;;;;;;;;;;17.90;66.80;;;;;;6221423;23;20321;-85
2023/06/25 03:27:15;;;;;;;;;;;17.80;66.70;;;;;;6220738;23;19912;-89
2023/06/25 03:29:41;;;;;;;;;;;17.90;66.70;;;;;;6246621;23;19990;-84
2023/06/25 03:32:07;;;;;;;;;;;17.90;66.70;;;;;;6247446;22;19951;-85
2023/06/25 03:34:33;;;;;;;;;;;17.90;66.80;;;;;;6246270;23;19938;-83
2023/06/25 03:36:59;;;;;;;;;;;17.90;66.80;;;;;;6246035;23;20244;-89
2023/06/25 03:39:25;;;;;;;;;;;18.00;66.90;;;;;;6246694;22;19922;-85
2023/06/25 03:41:51;;;;;;;;;;;18.00;66.80;;;;;;6220740;23;19917;-85
2023/06/25 03:44:17;;;;;;;;;;;18.10;66.90;;;;;;6246709;22;19931;-90
2023/06/25 03:46:43;;;;;;;;;;;18.10;66.90;;;;;;6245651;23;19911;-85
2023/06/25 03:49:09;;;;;;;;;;;18.10;66.80;;;;;;6227402;23;19946;-89
2023/06/25 03:51:35;;;;;;;;;;;18.10;66.90;;;;;;6220614;23;19957;-89
2023/06/25 03:54:00;;;;;;;;;;;18.10;66.80;;;;;;6221118;23;19917;-84
2023/06/25 03:56:26;;;;;;;;;;;18.20;66.70;;;;;;6220891;23;19916;-85
2023/06/25 03:58:52;;;;;;;;;;;18.20;66.80;;;;;;6248065;23;19912;-90
2023/06/25 04:01:18;;;;;;;;;;;18.30;66.70;;;;;;6195258;23;19916;-85
2023/06/25 04:03:44;;;;;;;;;;;18.40;66.80;;;;;;6220764;23;20310;-85
2023/06/25 04:06:10;;;;;;;;;;;18.40;66.70;;;;;;6246877;23;19986;-84
2023/06/25 04:08:40;;;;;;;;;;;18.40;66.80;;;;;;6195942;23;19998;-85
2023/06/25 04:11:05;;;;;;;;;;;18.50;66.90;;;;;;6220594;23;19911;-89
2023/06/25 04:13:31;;;;;;;;;;;18.50;66.70;;;;;;6220898;23;20336;-85
2023/06/25 04:15:57;;;;;;;;;;;18.60;66.60;;;;;;6220689;23;19951;-85
2023/06/25 04:18:23;;;;;;;;;;;18.60;66.70;;;;;;6220857;23;19912;-88
2023/06/25 04:20:49;;;;;;;;;;;18.60;66.60;;;;;;6220507;23;19912;-88
2023/06/25 04:23:17;;;;;;;;;;;18.70;66.70;;;;;;6221008;23;20328;-90
2023/06/25 04:25:43;;;;;;;;;;;18.80;66.50;;;;;;6220264;23;19982;-86
2023/06/25 04:28:28;;;;;;;;;;;18.80;66.50;;;;;;6220827;23;19941;-86
2023/06/25 04:30:54;;;;;;;;;;;18.80;66.10;;;;;;6220139;23;19912;-86
2023/06/25 04:33:20;;;;;;;;;;;18.80;66.30;;;;;;6220679;23;20321;-87
2023/06/25 04:35:46;;;;;;;;;;;18.80;66.10;;;;;;6220407;23;19912;-89
2023/06/25 04:38:12;;;;;;;;;;;18.90;66.10;;;;;;6247575;22;19912;-86
2023/06/25 04:40:38;;;;;;;;;;;19.00;66.10;;;;;;6220351;23;19918;-87
2023/06/25 04:43:03;;;;;;;;;;;19.00;66.00;;;;;;6220543;23;19911;-86
2023/06/25 04:45:29;;;;;;;;;;;19.10;65.90;;;;;;6220251;23;20002;-89
2023/06/25 04:47:55;;;;;;;;;;;19.00;66.10;;;;;;6247385;23;19986;-90
2023/06/25 04:50:21;;;;;;;;;;;19.10;66.10;;;;;;6247256;22;20325;-86
2023/06/25 04:52:47;;;;;;;;;;;19.20;65.90;;;;;;6250730;22;19915;-88
2023/06/25 04:55:13;;;;;;;;;;;19.30;65.90;;;;;;6225029;22;19911;-90
2023/06/25 04:57:39;;;;;;;;;;;19.40;65.40;;;;;;6277824;22;19978;-89
2023/06/25 05:00:06;;;;;;;;;;;19.50;64.70;;;;;;6250840;22;19957;-86
2023/06/25 05:02:32;;;;;;;;;;;19.50;65.30;;;;;;6225574;22;19918;-89
2023/06/25 05:05:01;;;;;;;;;;;19.60;65.40;;;;;;6251092;22;19911;-88
2023/06/25 05:07:27;;;;;;;;;;;19.60;65.30;;;;;;6225025;22;19937;-90
2023/06/25 05:09:53;;;;;;;;;;;19.70;65.40;;;;;;6225491;22;19911;-90
2023/06/25 05:12:19;;;;;;;;;;;19.70;65.40;;;;;;6224932;22;19926;-90
2023/06/25 05:14:45;;;;;;;;;;;19.70;65.50;;;;;;6251071;22;19911;-87
2023/06/25 05:17:11;;;;;;;;;;;19.80;65.60;;;;;;6225196;22;19935;-90
2023/06/25 05:19:37;;;;;;;;;;;19.80;65.40;;;;;;6225935;22;19915;-89
2023/06/25 05:22:04;;;;;;;;;;;20.00;65.40;;;;;;6250393;22;20025;-88
2023/06/25 05:24:31;;;;;;;;;;;20.00;64.50;;;;;;6225873;22;19999;-88
2023/06/25 05:26:57;;;;;;;;;;;20.10;64.90;;;;;;6250754;22;19907;-90
2023/06/25 05:29:23;;;;;;;;;;;20.10;64.90;;;;;;6278228;22;20359;-88
2023/06/25 05:31:49;;;;;;;;;;;20.20;65.00;;;;;;6224874;22;19993;-90
2023/06/25 05:34:15;;;;;;;;;;;20.20;64.90;;;;;;6225256;22;19941;-90
2023/06/25 05:36:41;;;;;;;;;;;20.30;64.90;;;;;;6250300;22;19951;-90
2023/06/25 05:39:07;;;;;;;;;;;20.30;64.70;;;;;;6225741;22;19911;-88
2023/06/25 05:41:38;;;;;;;;;;;20.40;64.60;;;;;;6250529;22;19945;-87
2023/06/25 05:44:04;;;;;;;;;;;20.40;64.20;;;;;;6251164;22;19963;-88
2023/06/25 05:46:30;;;;;;;;;;;20.40;63.70;;;;;;6250597;22;19918;-87
2023/06/25 05:48:56;;;;;;;;;;;20.60;64.10;;;;;;6250418;22;19931;-89
2023/06/25 05:51:22;;;;;;;;;;;20.60;63.90;;;;;;6250523;22;19911;-88
2023/06/25 05:53:50;;;;;;;;;;;20.70;63.20;;;;;;6250849;22;19917;-88
2023/06/25 05:56:16;;;;;;;;;;;20.80;63.40;;;;;;6251201;22;19950;-90
2023/06/25 05:58:42;;;;;;;;;;;20.90;63.10;;;;;;6250963;22;19907;-90
2023/06/25 06:01:08;;;;;;;;;;;21.10;62.80;;;;;;6224899;22;19915;-87
2023/06/25 06:03:34;;;;;;;;;;;21.20;62.60;;;;;;6225231;22;20305;-87
2023/06/25 06:06:01;;;;;;;;;;;21.20;62.10;;;;;;6224952;22;19919;-90
2023/06/25 06:08:27;;;;;;;;;;;21.40;62.10;;;;;;6225688;22;19911;-91
2023/06/25 06:10:55;;;;;;;;;;;21.50;61.80;;;;;;6251064;22;19938;-89
2023/06/25 06:13:21;;;;;;;;;;;21.60;61.50;;;;;;6227269;22;20328;-92
2023/06/25 06:15:46;;;;;;;;;;;21.70;61.40;;;;;;6252075;22;20054;-86
2023/06/25 06:18:12;;;;;;;;;;;21.80;61.70;;;;;;6252378;22;20313;-89
2023/06/25 06:20:38;;;;;;;;;;;21.80;61.00;;;;;;6226780;22;19915;-91
2023/06/25 06:23:04;;;;;;;;;;;21.90;60.90;;;;;;6226993;22;19998;-92
2023/06/25 06:25:30;;;;;;;;;;;22.00;60.60;;;;;;6226630;22;19969;-84
2023/06/25 06:27:56;;;;;;;;;;;22.10;60.70;;;;;;6279094;22;19986;-85
2023/06/25 06:30:22;;;;;;;;;;;22.20;60.50;;;;;;6226643;22;19930;-85
2023/06/25 06:32:48;;;;;;;;;;;22.20;60.50;;;;;;6252281;22;20275;-91
2023/06/25 06:35:14;;;;;;;;;;;22.30;60.60;;;;;;6226256;22;19923;-83
2023/06/25 06:37:40;;;;;;;;;;;22.30;60.10;;;;;;6252319;22;19914;-85
2023/06/25 06:40:07;;;;;;;;;;;22.40;60.50;;;;;;6278842;22;19954;-85
2023/06/25 06:42:36;;;;;;;;;;;22.40;59.90;;;;;;6278861;22;19907;-92
2023/06/25 06:45:02;;;;;;;;;;;22.40;60.00;;;;;;6252981;22;19970;-85
2023/06/25 06:47:28;;;;;;;;;;;22.40;60.00;;;;;;6251649;22;19914;-85
2023/06/25 06:49:54;;;;;;;;;;;22.30;59.90;;;;;;6277404;22;19998;-92
2023/06/25 06:52:41;;;;;;;;;;;22.30;60.10;;;;;;6225879;22;19989;-92
2023/06/25 06:55:07;;;;;;;;;;;22.50;59.20;;;;;;6251676;22;19915;-82
2023/06/25 06:57:35;;;;;;;;;;;22.70;58.20;;;;;;6251458;22;20217;-91
2023/06/25 07:00:02;;;;;;;;;;;22.80;58.40;;;;;;6226649;22;19911;-91
2023/06/25 07:02:28;;;;;;;;;;;23.00;57.80;;;;;;6251023;22;20013;-83
2023/06/25 07:04:54;;;;;;;;;;;23.20;57.10;;;;;;6251778;22;19978;-83
2023/06/25 07:07:20;;;;;;;;;;;23.30;57.00;;;;;;6278169;22;19959;-83
2023/06/25 07:10:05;;;;;;;;;;;23.50;56.60;;;;;;6226236;22;20352;-85
2023/06/25 07:12:31;;;;;;;;;;;23.70;55.70;;;;;;6250364;22;19965;-85
2023/06/25 07:14:56;;;;;;;;;;;23.80;55.50;;;;;;6251644;22;19915;-87
2023/06/25 07:17:24;;;;;;;;;;;24.00;54.80;;;;;;6225501;22;19934;-81
2023/06/25 07:19:50;;;;;;;;;;;24.00;53.90;;;;;;6226409;22;20218;-83
2023/06/25 07:22:16;;;;;;;;;;;24.10;53.80;;;;;;6250471;22;19994;-94
2023/06/25 07:24:42;;;;;;;;;;;24.10;52.50;;;;;;6251389;22;19917;-86
2023/06/25 07:27:08;;;;;;;;;;;24.10;53.30;;;;;;6251270;22;19929;-90
2023/06/25 07:29:33;;;;;;;;;;;24.30;53.20;;;;;;6226457;22;20321;-92
2023/06/25 07:31:59;;;;;;;;;;;24.30;52.60;;;;;;6251005;22;19989;-89
2023/06/25 07:34:25;;;;;;;;;;;24.40;52.10;;;;;;6226085;22;19918;-92
2023/06/25 07:36:51;;;;;;;;;;;24.40;51.50;;;;;;6225613;22;20002;-89
2023/06/25 07:39:36;;;;;;;;;;;24.50;51.20;;;;;;6251205;22;19951;-84
2023/06/25 07:42:02;;;;;;;;;;;24.40;50.10;;;;;;6250721;22;20336;-84
2023/06/25 07:44:28;;;;;;;;;;;24.50;49.00;;;;;;6250588;22;19915;-91
2023/06/25 07:46:54;;;;;;;;;;;24.50;49.40;;;;;;6251001;22;19913;-86
2023/06/25 07:49:20;;;;;;;;;;;24.40;49.20;;;;;;6245859;23;19935;-93
2023/06/25 07:51:53;;;;;;;;;;;24.60;49.60;;;;;;6245672;23;19990;-91
2023/06/25 07:54:18;;;;;;;;;;;24.70;49.50;;;;;;6246363;22;20116;-83
2023/06/25 07:56:45;;;;;;;;;;;24.70;49.30;;;;;;6246710;22;19983;-90
2023/06/25 07:59:12;;;;;;;;;;;24.80;50.00;;;;;;6248152;23;19918;-84
2023/06/25 08:01:38;;;;;;;;;;;24.90;49.10;;;;;;6219913;23;19911;-83
2023/06/25 08:04:04;;;;;;;;;;;25.10;48.50;;;;;;6246064;23;19912;-81
2023/06/25 08:06:30;;;;;;;;;;;25.10;48.90;;;;;;6245340;23;19912;-84
2023/06/25 08:08:56;;;;;;;;;;;25.20;48.60;;;;;;6247576;22;19981;-83
2023/06/25 08:11:22;;;;;;;;;;;25.20;48.50;;;;;;6245071;23;19924;-88
2023/06/25 08:13:48;;;;;;;;;;;25.30;47.80;;;;;;6245458;23;19914;-91
2023/06/25 08:16:14;;;;;;;;;;;25.30;47.50;;;;;;6219841;23;20325;-89
2023/06/25 08:18:40;;;;;;;;;;;25.40;47.40;;;;;;6245676;23;19904;-82
2023/06/25 08:21:07;;;;;;;;;;;25.40;46.90;;;;;;6244946;23;19927;-83
2023/06/25 08:23:33;;;;;;;;;;;25.50;46.50;;;;;;6245690;22;19922;-90
2023/06/25 08:25:59;;;;;;;;;;;25.60;46.80;;;;;;6219569;23;19915;-88
2023/06/25 08:28:25;;;;;;;;;;;25.70;46.60;;;;;;6220159;23;19986;-89
2023/06/25 08:30:51;;;;;;;;;;;25.80;46.10;;;;;;6246102;22;19923;-90
2023/06/25 08:33:17;;;;;;;;;;;25.80;45.30;;;;;;6245102;23;19918;-91
2023/06/25 08:35:43;;;;;;;;;;;25.80;44.90;;;;;;6219304;23;19916;-90
2023/06/25 08:38:10;;;;;;;;;;;25.90;44.80;;;;;;6244986;22;19908;-91
2023/06/25 08:40:40;;;;;;;;;;;25.90;44.10;;;;;;6243871;23;19958;-82
2023/06/25 08:43:06;;;;;;;;;;;26.00;45.10;;;;;;6245797;22;19986;-81
2023/06/25 08:45:32;;;;;;;;;;;26.10;44.80;;;;;;6244761;23;19986;-83
2023/06/25 08:48:02;;;;;;;;;;;26.10;44.10;;;;;;6244838;22;19930;-80
2023/06/25 08:50:29;;;;;;;;;;;26.10;43.30;;;;;;6244838;23;19919;-80
2023/06/25 08:52:56;;;;;;;;;;;26.20;43.00;;;;;;6245283;22;20301;-80
2023/06/25 08:58:06;;;;;;;;;;;26.40;42.80;;;;;;6245352;23;20356;-88
2023/06/25 09:00:32;;;;;;;;;;;26.40;42.00;;;;;;6246475;22;19911;-85
2023/06/25 09:02:58;;;;;;;;;;;26.50;41.30;;;;;;6220212;23;19943;-83
2023/06/25 09:05:26;;;;;;;;;;;26.50;40.20;;;;;;6219133;23;20602;-84
2023/06/25 09:07:52;;;;;;;;;;;26.60;40.00;;;;;;6245140;23;19918;-81
2023/06/25 09:10:37;;;;;;;;;;;26.80;40.10;;;;;;6244692;23;19956;-82
2023/06/25 09:13:03;;;;;;;;;;;26.80;40.00;;;;;;6245029;23;19942;-87
2023/06/25 09:15:29;;;;;;;;;;;26.90;40.20;;;;;;6244461;23;20218;-86
2023/06/25 09:17:56;;;;;;;;;;;27.20;40.40;;;;;;6244770;22;19911;-93
2023/06/25 09:20:22;;;;;;;;;;;27.20;40.50;;;;;;6244785;23;19981;-90
2023/06/25 09:23:07;;;;;;;;;;;27.10;39.90;;;;;;6220106;23;19911;-93
2023/06/25 09:25:33;;;;;;;;;;;27.30;39.10;;;;;;6244713;23;20363;-82
2023/06/25 09:28:02;;;;;;;;;;;27.30;38.40;;;;;;6245245;23;19919;-83
2023/06/25 09:30:28;;;;;;;;;;;27.30;38.00;;;;;;6244563;23;19951;-79
2023/06/25 09:32:55;;;;;;;;;;;27.40;38.10;;;;;;6246533;22;19946;-92
2023/06/25 09:35:41;;;;;;;;;;;27.40;37.50;;;;;;6244523;23;19911;-89
2023/06/25 09:38:07;;;;;;;;;;;27.90;36.60;;;;;;6245124;23;19916;-84
2023/06/25 09:40:33;;;;;;;;;;;28.20;36.60;;;;;;6218531;23;19912;-90
2023/06/25 09:43:00;;;;;;;;;;;28.70;36.10;;;;;;6245053;22;19912;-88
2023/06/25 09:45:27;;;;;;;;;;;28.80;36.00;;;;;;6245011;22;19990;-83
2023/06/25 09:47:55;;;;;;;;;;;28.40;36.20;;;;;;6221802;23;19911;-85
2023/06/25 09:50:40;;;;;;;;;;;28.20;36.80;;;;;;6250898;22;19916;-93
2023/06/25 09:53:27;;;;;;;;;;;28.10;36.90;;;;;;6252414;22;19969;-86
2023/06/25 09:55:55;;;;;;;;;;;28.00;36.80;;;;;;6252643;22;19917;-92
2023/06/25 09:58:21;;;;;;;;;;;28.10;36.80;;;;;;6252323;22;19961;-93
2023/06/25 10:00:48;;;;;;;;;;;28.20;36.70;;;;;;6226322;22;19993;-92
2023/06/25 10:03:38;;;;;;;;;;;28.20;36.90;;;;;;6252689;22;19918;-92
2023/06/25 10:06:04;;;;;;;;;;;28.30;36.90;;;;;;6180024;23;19936;-93
2023/06/25 10:08:32;;;;;;;;;;;28.40;36.80;;;;;;6130487;23;20249;-87
2023/06/25 10:10:59;;;;;;;;;;;28.40;36.50;;;;;;6154342;23;19945;-84
2023/06/25 10:13:26;;;;;;;;;;;28.40;36.40;;;;;;6155004;23;19995;-86
2023/06/25 10:16:15;;;;;;;;;;;28.50;36.30;;;;;;6130783;23;19992;-93
2023/06/25 10:18:42;;;;;;;;;;;28.40;36.20;;;;;;6155822;23;20354;-92
2023/06/25 10:21:08;;;;;;;;;;;28.50;36.40;;;;;;6130505;23;19912;-88
2023/06/25 10:23:36;;;;;;;;;;;29.90;35.60;;;;;;6130319;23;19995;-88
2023/06/25 10:26:03;;;;;;;;;;;30.80;33.90;;;;;;6154723;23;20254;-90
2023/06/25 10:28:30;;;;;;;;;;;30.80;33.90;;;;;;6155377;23;19912;-83
2023/06/25 10:30:57;;;;;;;;;;;30.90;33.20;;;;;;6129765;23;19947;-87
2023/06/25 10:33:23;;;;;;;;;;;31.80;32.70;;;;;;6155268;23;19919;-85
2023/06/25 10:36:08;;;;;;;;;;;32.40;32.40;;;;;;6129699;23;19913;-85
2023/06/25 10:38:34;;;;;;;;;;;32.20;30.80;;;;;;6155443;23;19918;-85
2023/06/25 10:41:00;;;;;;;;;;;31.80;31.80;;;;;;6154968;23;20286;-90
2023/06/25 10:43:26;;;;;;;;;;;31.60;31.50;;;;;;6218619;22;19942;-94
2023/06/25 10:45:54;;;;;;;;;;;31.30;31.10;;;;;;6251315;22;20284;-83
2023/06/25 10:48:21;;;;;;;;;;;31.00;31.90;;;;;;6226248;22;19911;-93
2023/06/25 10:50:48;;;;;;;;;;;30.60;31.80;;;;;;6251662;22;20304;-86
2023/06/25 10:53:16;;;;;;;;;;;30.50;31.60;;;;;;6252010;22;19993;-94
2023/06/25 10:55:47;;;;;;;;;;;30.40;32.10;;;;;;6251562;22;20344;-86
2023/06/25 10:58:32;;;;;;;;;;;30.30;32.60;;;;;;6251893;22;19911;-90
2023/06/25 11:00:59;;;;;;;;;;;30.20;32.50;;;;;;6251398;22;19983;-91
2023/06/25 11:03:25;;;;;;;;;;;30.60;32.30;;;;;;6251829;22;19911;-92
2023/06/25 11:05:51;;;;;;;;;;;31.00;32.10;;;;;;6226187;22;19999;-89
2023/06/25 11:08:18;;;;;;;;;;;31.20;33.00;;;;;;6251761;22;19915;-89
2023/06/25 11:10:44;;;;;;;;;;;31.40;32.20;;;;;;6251270;22;19989;-92
2023/06/25 11:13:12;;;;;;;;;;;31.40;32.70;;;;;;6250685;22;19934;-85
2023/06/25 11:15:40;;;;;;;;;;;31.30;32.90;;;;;;6251002;22;19912;-92
2023/06/25 11:18:07;;;;;;;;;;;31.20;33.00;;;;;;6251711;22;19949;-87
2023/06/25 11:20:33;;;;;;;;;;;31.20;33.40;;;;;;6251163;22;19911;-91
2023/06/25 11:23:01;;;;;;;;;;;31.30;33.40;;;;;;6251844;22;19995;-90
2023/06/25 11:25:27;;;;;;;;;;;31.30;33.50;;;;;;6226171;22;19922;-85
2023/06/25 11:28:13;;;;;;;;;;;31.00;31.20;;;;;;6226072;22;20436;-90
2023/06/25 11:30:40;;;;;;;;;;;30.80;32.40;;;;;;6251584;22;19918;-92
2023/06/25 11:33:26;;;;;;;;;;;30.50;31.90;;;;;;6226318;22;19957;-91
2023/06/25 11:35:53;;;;;;;;;;;30.40;32.50;;;;;;6225841;22;19911;-90
2023/06/25 11:38:37;;;;;;;;;;;30.50;32.80;;;;;;6226558;22;19957;-91
2023/06/25 11:41:06;;;;;;;;;;;30.40;31.60;;;;;;6251211;22;19918;-86
2023/06/25 11:43:34;;;;;;;;;;;30.40;31.80;;;;;;6251845;22;19911;-90
2023/06/25 11:46:01;;;;;;;;;;;30.50;32.10;;;;;;6251112;22;19990;-90
2023/06/25 11:48:28;;;;;;;;;;;31.90;31.80;;;;;;6251675;22;20303;-88
2023/06/25 11:51:03;;;;;;;;;;;34.10;29.90;;;;;;6224534;22;20382;-86
2023/06/25 11:53:29;;;;;;;;;;;34.50;28.70;;;;;;6251638;22;20118;-91
2023/06/25 11:55:55;;;;;;;;;;;34.50;29.10;;;;;;6225543;22;19934;-92
2023/06/25 11:58:21;;;;;;;;;;;34.10;29.90;;;;;;6226099;22;20337;-85
2023/06/25 12:00:47;;;;;;;;;;;33.60;30.00;;;;;;6250437;22;19969;-91
2023/06/25 12:03:13;;;;;;;;;;;33.30;29.40;;;;;;6225771;22;19919;-90
2023/06/25 12:05:39;;;;;;;;;;;33.20;28.80;;;;;;6250682;22;19918;-84
2023/06/25 12:08:05;;;;;;;;;;;32.90;28.70;;;;;;6277744;22;20312;-86
2023/06/25 12:10:31;;;;;;;;;;;32.80;29.20;;;;;;6250495;22;19956;-90
2023/06/25 12:12:57;;;;;;;;;;;32.70;29.50;;;;;;6251117;22;19961;-91
2023/06/25 12:15:23;;;;;;;;;;;32.60;29.50;;;;;;6225067;22;20309;-86
2023/06/25 12:17:49;;;;;;;;;;;32.50;29.90;;;;;;6225498;22;19911;-89
2023/06/25 12:20:15;;;;;;;;;;;32.30;30.00;;;;;;6249199;22;19938;-86
2023/06/25 12:22:41;;;;;;;;;;;32.20;30.10;;;;;;6225163;22;19918;-91
2023/06/25 12:25:07;;;;;;;;;;;32.30;30.20;;;;;;6224877;22;19915;-84
2023/06/25 12:27:33;;;;;;;;;;;32.80;29.60;;;;;;6225249;22;20370;-85
2023/06/25 12:29:59;;;;;;;;;;;33.00;30.30;;;;;;6250763;22;19943;-85
2023/06/25 12:32:25;;;;;;;;;;;34.60;29.40;;;;;;6250698;22;19911;-92
2023/06/25 12:34:51;;;;;;;;;;;37.00;26.00;;;;;;6226027;22;19933;-85
2023/06/25 12:37:18;;;;;;;;;;;37.60;24.60;;;;;;6225081;22;19918;-88
2023/06/25 12:39:44;;;;;;;;;;;36.40;24.40;;;;;;6251164;22;20435;-88
2023/06/25 12:42:10;;;;;;;;;;;35.90;26.00;;;;;;6225152;22;19907;-88
2023/06/25 12:44:36;;;;;;;;;;;36.60;25.40;;;;;;6251079;22;19986;-86
2023/06/25 12:47:02;;;;;;;;;;;37.10;24.20;;;;;;6250410;22;19907;-85
2023/06/25 12:49:27;;;;;;;;;;;36.30;24.90;;;;;;6250832;22;19986;-91
2023/06/25 12:51:53;;;;;;;;;;;35.50;26.20;;;;;;6225057;22;19989;-87
2023/06/25 12:54:19;;;;;;;;;;;34.90;26.30;;;;;;6225500;22;19919;-88
2023/06/25 12:56:45;;;;;;;;;;;34.20;26.10;;;;;;6224883;22;19911;-89
2023/06/25 12:59:11;;;;;;;;;;;34.50;27.00;;;;;;6251235;22;20142;-89
2023/06/25 13:01:37;;;;;;;;;;;34.90;26.40;;;;;;6250604;22;19915;-88
2023/06/25 13:04:03;;;;;;;;;;;34.90;27.30;;;;;;6250579;22;19948;-89
2023/06/25 13:06:29;;;;;;;;;;;35.10;27.70;;;;;;6224910;22;19957;-88
2023/06/25 13:09:15;;;;;;;;;;;35.30;27.30;;;;;;6225688;22;19911;-86
2023/06/25 13:11:41;;;;;;;;;;;35.40;27.30;;;;;;6275302;22;19911;-85
2023/06/25 13:14:07;;;;;;;;;;;35.20;28.10;;;;;;6250566;22;19918;-86
2023/06/25 13:16:33;;;;;;;;;;;35.10;27.70;;;;;;6224549;22;19990;-84
2023/06/25 13:18:59;;;;;;;;;;;34.70;28.00;;;;;;6250713;22;19985;-85
2023/06/25 13:21:25;;;;;;;;;;;34.40;28.40;;;;;;6251363;22;19911;-89
2023/06/25 13:23:51;;;;;;;;;;;34.00;28.90;;;;;;6227399;22;19919;-90
2023/06/25 13:26:16;;;;;;;;;;;33.70;29.00;;;;;;6226934;22;20329;-88
2023/06/25 13:28:42;;;;;;;;;;;33.40;29.60;;;;;;6227539;22;19918;-85
2023/06/25 13:31:08;;;;;;;;;;;33.50;29.20;;;;;;6252305;22;19994;-89
2023/06/25 13:33:34;;;;;;;;;;;33.60;29.30;;;;;;6252706;22;19918;-86
2023/06/25 13:36:02;;;;;;;;;;;33.70;29.40;;;;;;6226619;22;19921;-87
2023/06/25 13:38:28;;;;;;;;;;;33.60;28.10;;;;;;6252891;22;19917;-86
2023/06/25 13:41:00;;;;;;;;;;;33.60;29.00;;;;;;6226354;22;20323;-93
2023/06/25 13:43:26;;;;;;;;;;;33.60;28.80;;;;;;6215780;23;19912;-86
2023/06/25 13:45:51;;;;;;;;;;;33.40;28.90;;;;;;6190163;23;20444;-86
2023/06/25 13:48:17;;;;;;;;;;;33.40;28.90;;;;;;6189858;23;19965;-89
2023/06/25 13:50:43;;;;;;;;;;;33.30;28.60;;;;;;6189812;23;20343;-86
2023/06/25 13:53:09;;;;;;;;;;;33.30;28.50;;;;;;6190732;23;19981;-92
2023/06/25 13:55:35;;;;;;;;;;;33.40;28.40;;;;;;6190182;23;19994;-94
2023/06/25 13:58:02;;;;;;;;;;;33.40;27.50;;;;;;6190593;23;19915;-91
2023/06/25 14:00:29;;;;;;;;;;;33.30;27.90;;;;;;6189910;23;19916;-87
2023/06/25 14:02:54;;;;;;;;;;;33.00;28.00;;;;;;6215253;23;20284;-85
2023/06/25 14:05:20;;;;;;;;;;;32.80;28.00;;;;;;6215275;23;19995;-90
2023/06/25 14:07:46;;;;;;;;;;;32.90;28.10;;;;;;6215244;23;20002;-90
2023/06/25 14:10:12;;;;;;;;;;;33.00;28.40;;;;;;6189917;23;19958;-88
2023/06/25 14:12:38;;;;;;;;;;;32.80;28.00;;;;;;6190380;23;19979;-92
2023/06/25 14:15:04;;;;;;;;;;;32.80;28.00;;;;;;6190422;23;19943;-90
2023/06/25 14:17:30;;;;;;;;;;;32.80;27.90;;;;;;6190100;23;19939;-90
2023/06/25 14:19:56;;;;;;;;;;;32.80;28.10;;;;;;6199590;22;19922;-92